»·PEaware :: N522PM KEUG-KPDX

N522PM :: KEUG-KPDX

FLIGHT INFORMATION

Flight Status: Arrived
Operator: Privately registered:
United States
More flights under this callsign
Pilot: Bruce B. (6887)
Aircraft: Unknown
(LEG2)
More flights by this aircraft type
Origin: KEUG Mahlon Sweet
United States
Destination: KPDX Portland Intl
United States
More flights between these airports :: More routes between these airports
Route:
File this flight plan on PilotEdge
Remarks:
Altitude:
(Current/Filed)
5,500ft
Speed:
(Current/Filed)
230kts
Departed: 15-Jun-22 02:30 PM
Arrived: 15-Jun-22 03:03 PM
Distance/Time
Traveled:
92nm/0:33
Distance/Time
To Go:
Arrived

Flight Plot

Page will automatically refresh every two minutes.

Flight plan parsing failed; only flown route is shown


Map Options




Map Legend


Flown Route
Filed Route
Departure Airport
Arrival Airport
Navaid (VOR, NDB)
Fix

Horizontal Profiles

Position Reports

Time Latitude Longitude Heading Altitude Ground
Speed
15-Jun-22 14:11 44.116808 -123.215389 38 372ft 0kts
15-Jun-22 14:12 44.116808 -123.215389 38 372ft 0kts
15-Jun-22 14:13 44.116809 -123.215388 38 372ft 0kts
15-Jun-22 14:15 44.116811 -123.215386 38 372ft 0kts
15-Jun-22 14:15 44.116811 -123.215385 38 372ft 0kts
15-Jun-22 14:16 44.116812 -123.215385 38 372ft 0kts
15-Jun-22 14:17 44.116812 -123.215385 38 372ft 0kts
15-Jun-22 14:18 44.116812 -123.215385 38 372ft 0kts
15-Jun-22 14:19 44.116812 -123.215385 38 372ft 0kts
15-Jun-22 14:20 44.116812 -123.215384 38 372ft 0kts
15-Jun-22 14:21 44.116813 -123.215383 38 372ft 0kts
15-Jun-22 14:22 44.117517 -123.215961 358 372ft 9kts
15-Jun-22 14:23 44.119993 -123.217101 348 372ft 14kts
15-Jun-22 14:24 44.124781 -123.217197 359 372ft 15kts
15-Jun-22 14:25 44.129334 -123.217259 0 372ft 17kts
15-Jun-22 14:26 44.134552 -123.217318 0 372ft 17kts
15-Jun-22 14:27 44.135406 -123.218216 262 372ft 0kts
15-Jun-22 14:28 44.135406 -123.218217 262 372ft 0kts
15-Jun-22 14:29 44.131067 -123.219075 177 372ft 87kts
15-Jun-22 14:30 44.119485 -123.243283 345 1601ft 141kts
15-Jun-22 14:31 44.155980 -123.245767 354 3457ft 136kts
15-Jun-22 14:32 44.195360 -123.239627 21 4879ft 149kts
15-Jun-22 14:33 44.232296 -123.220752 18 5894ft 133kts
15-Jun-22 14:34 44.274824 -123.201374 18 5514ft 180kts
15-Jun-22 14:35 44.326778 -123.177994 18 5506ft 207kts
15-Jun-22 14:36 44.382928 -123.152681 18 5507ft 216kts
15-Jun-22 14:37 44.440898 -123.126515 18 5507ft 221kts
15-Jun-22 14:38 44.499735 -123.099901 18 5508ft 222kts
15-Jun-22 14:39 44.558490 -123.073275 18 5507ft 222kts
15-Jun-22 14:40 44.617462 -123.046493 18 5504ft 222kts
15-Jun-22 14:41 44.676160 -123.019835 18 5500ft 221kts
15-Jun-22 14:42 44.734708 -122.993146 18 5497ft 220kts
15-Jun-22 14:43 44.792831 -122.966543 18 5011ft 216kts
15-Jun-22 14:44 44.850376 -122.939952 21 3945ft 219kts
15-Jun-22 14:45 44.903536 -122.903791 26 3495ft 205kts
15-Jun-22 14:46 44.954507 -122.867579 26 3485ft 205kts
15-Jun-22 14:47 45.005845 -122.831194 26 3490ft 209kts
15-Jun-22 14:48 45.058235 -122.794420 23 3496ft 211kts
15-Jun-22 14:49 45.112984 -122.764099 21 3503ft 211kts
15-Jun-22 14:50 45.166939 -122.733244 22 3508ft 211kts
15-Jun-22 14:51 45.220535 -122.702473 22 3509ft 212kts
15-Jun-22 14:52 45.275258 -122.670969 22 3510ft 212kts
15-Jun-22 14:53 45.329450 -122.637701 25 3508ft 211kts
15-Jun-22 14:54 45.378219 -122.605093 25 3498ft 173kts
15-Jun-22 14:55 45.417271 -122.579180 25 3408ft 140kts
15-Jun-22 14:56 45.450322 -122.557694 24 2784ft 130kts
15-Jun-22 14:57 45.481963 -122.538458 18 2239ft 113kts
15-Jun-22 14:58 45.510304 -122.523503 16 1721ft 104kts
15-Jun-22 14:59 45.538312 -122.511402 10 1287ft 104kts
15-Jun-22 15:00 45.563993 -122.517743 305 743ft 95kts
15-Jun-22 15:01 45.576271 -122.548663 298 384ft 86kts
15-Jun-22 15:02 45.586545 -122.574696 297 33ft 31kts
15-Jun-22 15:03 45.585542 -122.577084 241 33ft 10kts
15-Jun-22 15:04 45.585203 -122.578084 295 33ft 0kts
15-Jun-22 15:05 45.585203 -122.578084 295 33ft 0kts

Navigation Log

Ident Type
Flight plan parsing failed, navigation log unavailable